sensor_id;sensor_type;location;lat;lon;timestamp;P1;durP1;ratioP1;P2;durP2;ratioP2
61756;SDS011;57225;61.460;24.060;2022-08-19T00:01:18;19.60;;;13.82;;
61756;SDS011;57225;61.460;24.060;2022-08-19T00:04:04;21.95;;;15.13;;
61756;SDS011;57225;61.460;24.060;2022-08-19T00:06:50;18.40;;;14.07;;
61756;SDS011;57225;61.460;24.060;2022-08-19T00:09:35;21.60;;;15.65;;
61756;SDS011;57225;61.460;24.060;2022-08-19T00:12:19;19.48;;;14.38;;
61756;SDS011;57225;61.460;24.060;2022-08-19T00:15:05;16.10;;;13.55;;
61756;SDS011;57225;61.460;24.060;2022-08-19T00:17:55;23.40;;;16.27;;
61756;SDS011;57225;61.460;24.060;2022-08-19T00:20:39;21.50;;;14.05;;
61756;SDS011;57225;61.460;24.060;2022-08-19T00:23:24;21.23;;;13.70;;
61756;SDS011;57225;61.460;24.060;2022-08-19T00:26:08;20.65;;;14.98;;
61756;SDS011;57225;61.460;24.060;2022-08-19T00:28:54;29.92;;;14.80;;
61756;SDS011;57225;61.460;24.060;2022-08-19T00:31:39;19.80;;;14.55;;
61756;SDS011;57225;61.460;24.060;2022-08-19T00:34:25;20.30;;;14.13;;
61756;SDS011;57225;61.460;24.060;2022-08-19T00:37:13;22.55;;;14.45;;
61756;SDS011;57225;61.460;24.060;2022-08-19T00:39:58;18.25;;;15.13;;
61756;SDS011;57225;61.460;24.060;2022-08-19T00:42:42;19.73;;;14.65;;
61756;SDS011;57225;61.460;24.060;2022-08-19T00:45:28;18.83;;;14.65;;
61756;SDS011;57225;61.460;24.060;2022-08-19T00:48:20;23.42;;;14.57;;
61756;SDS011;57225;61.460;24.060;2022-08-19T00:51:05;20.83;;;14.90;;
61756;SDS011;57225;61.460;24.060;2022-08-19T00:53:49;20.83;;;14.57;;
61756;SDS011;57225;61.460;24.060;2022-08-19T00:56:34;16.27;;;12.80;;
61756;SDS011;57225;61.460;24.060;2022-08-19T00:59:19;21.75;;;14.25;;
61756;SDS011;57225;61.460;24.060;2022-08-19T01:02:04;21.55;;;13.73;;
61756;SDS011;57225;61.460;24.060;2022-08-19T01:04:48;20.27;;;13.63;;
61756;SDS011;57225;61.460;24.060;2022-08-19T01:07:33;18.67;;;13.40;;
61756;SDS011;57225;61.460;24.060;2022-08-19T01:10:20;18.95;;;14.60;;
61756;SDS011;57225;61.460;24.060;2022-08-19T01:13:07;19.98;;;14.90;;
61756;SDS011;57225;61.460;24.060;2022-08-19T01:15:53;21.50;;;13.52;;
61756;SDS011;57225;61.460;24.060;2022-08-19T01:18:42;20.50;;;14.13;;
61756;SDS011;57225;61.460;24.060;2022-08-19T01:21:37;19.55;;;13.75;;
61756;SDS011;57225;61.460;24.060;2022-08-19T01:24:37;25.55;;;13.82;;
61756;SDS011;57225;61.460;24.060;2022-08-19T01:27:22;18.27;;;13.68;;
61756;SDS011;57225;61.460;24.060;2022-08-19T01:30:06;17.55;;;13.95;;
61756;SDS011;57225;61.460;24.060;2022-08-19T01:32:52;16.17;;;13.10;;
61756;SDS011;57225;61.460;24.060;2022-08-19T01:35:37;19.08;;;13.52;;
61756;SDS011;57225;61.460;24.060;2022-08-19T01:38:23;19.58;;;14.05;;
61756;SDS011;57225;61.460;24.060;2022-08-19T01:41:12;21.17;;;14.02;;
61756;SDS011;57225;61.460;24.060;2022-08-19T01:43:57;17.48;;;14.00;;
61756;SDS011;57225;61.460;24.060;2022-08-19T01:46:42;24.15;;;14.43;;
61756;SDS011;57225;61.460;24.060;2022-08-19T01:49:28;21.33;;;15.07;;
61756;SDS011;57225;61.460;24.060;2022-08-19T01:52:12;25.77;;;15.02;;
61756;SDS011;57225;61.460;24.060;2022-08-19T01:54:56;20.00;;;13.98;;
61756;SDS011;57225;61.460;24.060;2022-08-19T01:57:41;22.92;;;14.05;;
61756;SDS011;57225;61.460;24.060;2022-08-19T02:00:29;20.80;;;14.43;;
61756;SDS011;57225;61.460;24.060;2022-08-19T02:03:15;20.60;;;15.05;;
61756;SDS011;57225;61.460;24.060;2022-08-19T02:06:00;21.70;;;14.98;;
61756;SDS011;57225;61.460;24.060;2022-08-19T02:08:46;20.90;;;14.73;;
61756;SDS011;57225;61.460;24.060;2022-08-19T02:11:32;19.13;;;14.65;;
61756;SDS011;57225;61.460;24.060;2022-08-19T02:14:19;23.25;;;15.05;;
61756;SDS011;57225;61.460;24.060;2022-08-19T02:17:03;19.20;;;14.38;;
61756;SDS011;57225;61.460;24.060;2022-08-19T02:19:47;18.80;;;14.77;;
61756;SDS011;57225;61.460;24.060;2022-08-19T02:22:32;23.10;;;15.80;;
61756;SDS011;57225;61.460;24.060;2022-08-19T02:25:17;20.70;;;14.27;;
61756;SDS011;57225;61.460;24.060;2022-08-19T02:28:01;19.45;;;14.80;;
61756;SDS011;57225;61.460;24.060;2022-08-19T02:30:46;21.23;;;15.88;;
61756;SDS011;57225;61.460;24.060;2022-08-19T02:33:32;21.13;;;14.52;;
61756;SDS011;57225;61.460;24.060;2022-08-19T02:36:16;23.48;;;14.98;;
61756;SDS011;57225;61.460;24.060;2022-08-19T02:39:00;23.45;;;14.75;;
61756;SDS011;57225;61.460;24.060;2022-08-19T02:41:44;20.70;;;14.95;;
61756;SDS011;57225;61.460;24.060;2022-08-19T02:44:29;22.35;;;15.27;;
61756;SDS011;57225;61.460;24.060;2022-08-19T02:47:13;19.98;;;13.73;;
61756;SDS011;57225;61.460;24.060;2022-08-19T02:49:59;18.85;;;14.38;;
61756;SDS011;57225;61.460;24.060;2022-08-19T02:52:44;22.17;;;13.55;;
61756;SDS011;57225;61.460;24.060;2022-08-19T02:55:29;22.83;;;14.45;;
61756;SDS011;57225;61.460;24.060;2022-08-19T02:58:14;22.92;;;14.75;;
61756;SDS011;57225;61.460;24.060;2022-08-19T03:00:59;23.70;;;14.68;;
61756;SDS011;57225;61.460;24.060;2022-08-19T03:03:43;22.38;;;14.52;;
61756;SDS011;57225;61.460;24.060;2022-08-19T03:06:28;16.48;;;13.55;;
61756;SDS011;57225;61.460;24.060;2022-08-19T03:09:13;20.23;;;14.43;;
61756;SDS011;57225;61.460;24.060;2022-08-19T03:11:57;17.90;;;13.32;;
61756;SDS011;57225;61.460;24.060;2022-08-19T03:14:41;19.83;;;14.25;;
61756;SDS011;57225;61.460;24.060;2022-08-19T03:17:26;17.75;;;13.82;;
61756;SDS011;57225;61.460;24.060;2022-08-19T03:20:10;20.98;;;14.07;;
61756;SDS011;57225;61.460;24.060;2022-08-19T03:22:55;23.70;;;14.95;;
61756;SDS011;57225;61.460;24.060;2022-08-19T03:25:40;25.75;;;14.70;;
61756;SDS011;57225;61.460;24.060;2022-08-19T03:28:27;18.15;;;13.57;;
61756;SDS011;57225;61.460;24.060;2022-08-19T03:31:12;22.10;;;13.82;;
61756;SDS011;57225;61.460;24.060;2022-08-19T03:33:57;25.73;;;15.35;;
61756;SDS011;57225;61.460;24.060;2022-08-19T03:36:41;29.45;;;15.40;;
61756;SDS011;57225;61.460;24.060;2022-08-19T03:39:26;19.40;;;14.18;;
61756;SDS011;57225;61.460;24.060;2022-08-19T03:42:11;26.77;;;14.38;;
61756;SDS011;57225;61.460;24.060;2022-08-19T03:44:55;24.10;;;14.52;;
61756;SDS011;57225;61.460;24.060;2022-08-19T03:47:40;26.63;;;14.18;;
61756;SDS011;57225;61.460;24.060;2022-08-19T03:50:24;23.00;;;14.13;;
61756;SDS011;57225;61.460;24.060;2022-08-19T03:53:08;20.00;;;13.95;;
61756;SDS011;57225;61.460;24.060;2022-08-19T03:55:53;18.30;;;13.52;;
61756;SDS011;57225;61.460;24.060;2022-08-19T03:58:43;26.02;;;13.57;;
61756;SDS011;57225;61.460;24.060;2022-08-19T04:01:28;22.58;;;13.27;;
61756;SDS011;57225;61.460;24.060;2022-08-19T04:04:13;25.38;;;14.10;;
61756;SDS011;57225;61.460;24.060;2022-08-19T04:06:57;20.08;;;14.48;;
61756;SDS011;57225;61.460;24.060;2022-08-19T04:09:42;21.13;;;14.07;;
61756;SDS011;57225;61.460;24.060;2022-08-19T04:12:26;19.98;;;13.38;;
61756;SDS011;57225;61.460;24.060;2022-08-19T04:15:11;21.52;;;13.90;;
61756;SDS011;57225;61.460;24.060;2022-08-19T04:17:55;23.70;;;13.88;;
61756;SDS011;57225;61.460;24.060;2022-08-19T04:20:43;20.42;;;13.20;;
61756;SDS011;57225;61.460;24.060;2022-08-19T04:23:30;20.20;;;13.27;;
61756;SDS011;57225;61.460;24.060;2022-08-19T04:26:19;20.70;;;13.45;;
61756;SDS011;57225;61.460;24.060;2022-08-19T04:29:08;21.42;;;13.35;;
61756;SDS011;57225;61.460;24.060;2022-08-19T04:31:57;24.15;;;13.90;;
61756;SDS011;57225;61.460;24.060;2022-08-19T04:34:43;21.90;;;13.35;;
61756;SDS011;57225;61.460;24.060;2022-08-19T04:37:27;21.65;;;13.23;;
61756;SDS011;57225;61.460;24.060;2022-08-19T04:40:16;17.52;;;12.43;;
61756;SDS011;57225;61.460;24.060;2022-08-19T04:43:19;20.35;;;12.70;;
61756;SDS011;57225;61.460;24.060;2022-08-19T04:46:04;18.73;;;12.98;;
61756;SDS011;57225;61.460;24.060;2022-08-19T04:48:50;17.75;;;12.77;;
61756;SDS011;57225;61.460;24.060;2022-08-19T04:51:34;18.17;;;12.43;;
61756;SDS011;57225;61.460;24.060;2022-08-19T04:54:21;20.60;;;12.73;;
61756;SDS011;57225;61.460;24.060;2022-08-19T04:57:07;20.65;;;13.15;;
61756;SDS011;57225;61.460;24.060;2022-08-19T04:59:54;23.38;;;12.98;;
61756;SDS011;57225;61.460;24.060;2022-08-19T05:02:39;18.42;;;12.50;;
61756;SDS011;57225;61.460;24.060;2022-08-19T05:05:24;22.25;;;12.15;;
61756;SDS011;57225;61.460;24.060;2022-08-19T05:08:08;24.33;;;11.73;;
61756;SDS011;57225;61.460;24.060;2022-08-19T05:10:52;25.55;;;12.20;;
61756;SDS011;57225;61.460;24.060;2022-08-19T05:13:36;17.88;;;10.48;;
61756;SDS011;57225;61.460;24.060;2022-08-19T05:16:21;19.35;;;10.57;;
61756;SDS011;57225;61.460;24.060;2022-08-19T05:19:06;19.70;;;10.25;;
61756;SDS011;57225;61.460;24.060;2022-08-19T05:22:10;20.33;;;10.98;;
61756;SDS011;57225;61.460;24.060;2022-08-19T05:25:14;19.63;;;10.20;;
61756;SDS011;57225;61.460;24.060;2022-08-19T05:28:02;20.75;;;10.65;;
61756;SDS011;57225;61.460;24.060;2022-08-19T05:30:46;21.10;;;9.93;;
61756;SDS011;57225;61.460;24.060;2022-08-19T05:33:32;20.80;;;10.57;;
61756;SDS011;57225;61.460;24.060;2022-08-19T05:36:16;22.92;;;10.68;;
61756;SDS011;57225;61.460;24.060;2022-08-19T05:39:02;20.77;;;10.50;;
61756;SDS011;57225;61.460;24.060;2022-08-19T05:41:48;18.38;;;10.82;;
61756;SDS011;57225;61.460;24.060;2022-08-19T05:44:35;21.73;;;11.02;;
61756;SDS011;57225;61.460;24.060;2022-08-19T05:47:21;17.33;;;10.30;;
61756;SDS011;57225;61.460;24.060;2022-08-19T05:50:06;17.67;;;11.40;;
61756;SDS011;57225;61.460;24.060;2022-08-19T05:52:50;25.33;;;11.95;;
61756;SDS011;57225;61.460;24.060;2022-08-19T05:55:35;21.27;;;11.48;;
61756;SDS011;57225;61.460;24.060;2022-08-19T05:58:21;15.23;;;10.77;;
61756;SDS011;57225;61.460;24.060;2022-08-19T06:01:12;16.88;;;11.45;;
61756;SDS011;57225;61.460;24.060;2022-08-19T06:03:59;17.20;;;11.48;;
61756;SDS011;57225;61.460;24.060;2022-08-19T06:06:44;16.75;;;11.57;;
61756;SDS011;57225;61.460;24.060;2022-08-19T06:09:30;21.73;;;11.98;;
61756;SDS011;57225;61.460;24.060;2022-08-19T06:12:14;21.02;;;11.77;;
61756;SDS011;57225;61.460;24.060;2022-08-19T06:14:59;22.05;;;12.38;;
61756;SDS011;57225;61.460;24.060;2022-08-19T06:17:44;19.95;;;11.80;;
61756;SDS011;57225;61.460;24.060;2022-08-19T06:20:28;23.35;;;12.23;;
61756;SDS011;57225;61.460;24.060;2022-08-19T06:23:13;20.80;;;11.13;;
61756;SDS011;57225;61.460;24.060;2022-08-19T06:25:56;23.70;;;11.82;;
61756;SDS011;57225;61.460;24.060;2022-08-19T06:28:41;22.77;;;11.50;;
61756;SDS011;57225;61.460;24.060;2022-08-19T06:34:14;23.30;;;11.25;;
61756;SDS011;57225;61.460;24.060;2022-08-19T06:37:00;16.95;;;11.20;;
61756;SDS011;57225;61.460;24.060;2022-08-19T06:39:45;19.42;;;10.80;;
61756;SDS011;57225;61.460;24.060;2022-08-19T06:42:30;20.67;;;10.93;;
61756;SDS011;57225;61.460;24.060;2022-08-19T06:45:14;16.92;;;10.90;;
61756;SDS011;57225;61.460;24.060;2022-08-19T06:47:58;19.10;;;10.80;;
61756;SDS011;57225;61.460;24.060;2022-08-19T06:50:43;24.90;;;10.55;;
61756;SDS011;57225;61.460;24.060;2022-08-19T06:53:27;23.73;;;10.45;;
61756;SDS011;57225;61.460;24.060;2022-08-19T06:56:17;26.55;;;10.57;;
61756;SDS011;57225;61.460;24.060;2022-08-19T06:59:04;18.35;;;10.60;;
61756;SDS011;57225;61.460;24.060;2022-08-19T07:01:51;22.27;;;11.18;;
61756;SDS011;57225;61.460;24.060;2022-08-19T07:04:37;18.80;;;10.27;;
61756;SDS011;57225;61.460;24.060;2022-08-19T07:07:22;23.90;;;9.55;;
61756;SDS011;57225;61.460;24.060;2022-08-19T07:10:06;20.30;;;10.00;;
61756;SDS011;57225;61.460;24.060;2022-08-19T07:12:50;16.98;;;9.98;;
61756;SDS011;57225;61.460;24.060;2022-08-19T07:15:35;16.00;;;8.95;;
61756;SDS011;57225;61.460;24.060;2022-08-19T07:18:21;16.20;;;8.55;;
61756;SDS011;57225;61.460;24.060;2022-08-19T07:21:08;16.67;;;9.02;;
61756;SDS011;57225;61.460;24.060;2022-08-19T07:23:55;17.05;;;8.80;;
61756;SDS011;57225;61.460;24.060;2022-08-19T07:26:41;20.27;;;9.18;;
61756;SDS011;57225;61.460;24.060;2022-08-19T07:29:27;15.30;;;8.57;;
61756;SDS011;57225;61.460;24.060;2022-08-19T07:32:12;17.45;;;8.30;;
61756;SDS011;57225;61.460;24.060;2022-08-19T07:34:57;17.60;;;8.52;;
61756;SDS011;57225;61.460;24.060;2022-08-19T07:37:41;15.77;;;8.95;;
61756;SDS011;57225;61.460;24.060;2022-08-19T07:40:28;18.58;;;8.38;;
61756;SDS011;57225;61.460;24.060;2022-08-19T07:43:12;21.27;;;9.50;;
61756;SDS011;57225;61.460;24.060;2022-08-19T07:45:58;20.35;;;9.25;;
61756;SDS011;57225;61.460;24.060;2022-08-19T07:48:43;13.82;;;9.25;;
61756;SDS011;57225;61.460;24.060;2022-08-19T07:51:31;23.52;;;9.07;;
61756;SDS011;57225;61.460;24.060;2022-08-19T07:54:16;21.60;;;8.88;;
61756;SDS011;57225;61.460;24.060;2022-08-19T07:57:02;23.35;;;8.80;;
61756;SDS011;57225;61.460;24.060;2022-08-19T07:59:47;17.35;;;8.55;;
61756;SDS011;57225;61.460;24.060;2022-08-19T08:02:31;16.23;;;8.98;;
61756;SDS011;57225;61.460;24.060;2022-08-19T08:05:15;18.63;;;8.88;;
61756;SDS011;57225;61.460;24.060;2022-08-19T08:08:18;20.77;;;8.85;;
61756;SDS011;57225;61.460;24.060;2022-08-19T08:11:42;17.00;;;7.70;;
61756;SDS011;57225;61.460;24.060;2022-08-19T08:14:48;15.07;;;7.70;;
61756;SDS011;57225;61.460;24.060;2022-08-19T08:17:36;20.23;;;8.40;;
61756;SDS011;57225;61.460;24.060;2022-08-19T08:20:20;16.52;;;7.93;;
61756;SDS011;57225;61.460;24.060;2022-08-19T08:23:05;18.92;;;7.45;;
61756;SDS011;57225;61.460;24.060;2022-08-19T08:26:10;11.95;;;7.40;;
61756;SDS011;57225;61.460;24.060;2022-08-19T08:28:57;17.85;;;7.53;;
61756;SDS011;57225;61.460;24.060;2022-08-19T08:31:43;17.95;;;7.22;;
61756;SDS011;57225;61.460;24.060;2022-08-19T08:34:28;14.13;;;7.40;;
61756;SDS011;57225;61.460;24.060;2022-08-19T08:37:12;13.23;;;6.43;;
61756;SDS011;57225;61.460;24.060;2022-08-19T08:39:57;17.85;;;6.60;;
61756;SDS011;57225;61.460;24.060;2022-08-19T08:42:43;20.05;;;7.03;;
61756;SDS011;57225;61.460;24.060;2022-08-19T08:45:36;20.13;;;6.85;;
61756;SDS011;57225;61.460;24.060;2022-08-19T08:51:28;10.50;;;6.07;;
61756;SDS011;57225;61.460;24.060;2022-08-19T08:54:18;23.65;;;6.68;;
61756;SDS011;57225;61.460;24.060;2022-08-19T08:57:06;12.75;;;6.28;;
61756;SDS011;57225;61.460;24.060;2022-08-19T08:59:57;16.88;;;6.50;;
61756;SDS011;57225;61.460;24.060;2022-08-19T09:02:44;14.60;;;6.63;;
61756;SDS011;57225;61.460;24.060;2022-08-19T09:05:50;20.20;;;6.10;;
61756;SDS011;57225;61.460;24.060;2022-08-19T09:12:00;20.55;;;7.05;;
61756;SDS011;57225;61.460;24.060;2022-08-19T09:15:11;11.90;;;6.30;;
61756;SDS011;57225;61.460;24.060;2022-08-19T09:17:59;14.35;;;6.20;;
61756;SDS011;57225;61.460;24.060;2022-08-19T09:20:46;12.10;;;6.00;;
61756;SDS011;57225;61.460;24.060;2022-08-19T09:23:35;21.63;;;6.47;;
61756;SDS011;57225;61.460;24.060;2022-08-19T09:26:21;15.35;;;5.78;;
61756;SDS011;57225;61.460;24.060;2022-08-19T09:29:07;13.82;;;5.55;;
61756;SDS011;57225;61.460;24.060;2022-08-19T09:31:51;21.02;;;6.05;;
61756;SDS011;57225;61.460;24.060;2022-08-19T09:34:36;12.07;;;5.80;;
61756;SDS011;57225;61.460;24.060;2022-08-19T09:37:20;9.35;;;5.53;;
61756;SDS011;57225;61.460;24.060;2022-08-19T09:40:06;13.75;;;5.97;;
61756;SDS011;57225;61.460;24.060;2022-08-19T09:42:51;14.30;;;5.93;;
61756;SDS011;57225;61.460;24.060;2022-08-19T09:45:36;18.67;;;6.10;;
61756;SDS011;57225;61.460;24.060;2022-08-19T09:48:19;12.25;;;5.68;;
61756;SDS011;57225;61.460;24.060;2022-08-19T09:51:09;15.10;;;5.90;;
61756;SDS011;57225;61.460;24.060;2022-08-19T09:54:00;16.33;;;5.55;;
61756;SDS011;57225;61.460;24.060;2022-08-19T09:56:46;8.32;;;5.20;;
61756;SDS011;57225;61.460;24.060;2022-08-19T09:59:30;17.80;;;5.50;;
61756;SDS011;57225;61.460;24.060;2022-08-19T10:02:14;13.93;;;6.03;;
61756;SDS011;57225;61.460;24.060;2022-08-19T10:05:00;13.13;;;6.05;;
61756;SDS011;57225;61.460;24.060;2022-08-19T10:08:03;10.02;;;5.30;;
61756;SDS011;57225;61.460;24.060;2022-08-19T10:10:47;14.73;;;5.55;;
61756;SDS011;57225;61.460;24.060;2022-08-19T10:13:32;10.15;;;5.65;;
61756;SDS011;57225;61.460;24.060;2022-08-19T10:16:20;18.83;;;5.95;;
61756;SDS011;57225;61.460;24.060;2022-08-19T10:19:06;13.38;;;5.80;;
61756;SDS011;57225;61.460;24.060;2022-08-19T10:21:50;23.15;;;6.32;;
61756;SDS011;57225;61.460;24.060;2022-08-19T10:24:35;16.25;;;5.70;;
61756;SDS011;57225;61.460;24.060;2022-08-19T10:27:19;12.82;;;5.55;;
61756;SDS011;57225;61.460;24.060;2022-08-19T10:30:03;11.95;;;5.63;;
61756;SDS011;57225;61.460;24.060;2022-08-19T10:32:48;16.40;;;6.00;;
61756;SDS011;57225;61.460;24.060;2022-08-19T10:35:33;12.15;;;5.45;;
61756;SDS011;57225;61.460;24.060;2022-08-19T10:38:18;10.75;;;5.25;;
61756;SDS011;57225;61.460;24.060;2022-08-19T10:41:10;15.82;;;6.20;;
61756;SDS011;57225;61.460;24.060;2022-08-19T10:43:58;14.00;;;5.45;;
61756;SDS011;57225;61.460;24.060;2022-08-19T10:46:44;15.70;;;5.50;;
61756;SDS011;57225;61.460;24.060;2022-08-19T10:49:31;13.90;;;6.22;;
61756;SDS011;57225;61.460;24.060;2022-08-19T10:52:15;11.18;;;6.00;;
61756;SDS011;57225;61.460;24.060;2022-08-19T10:55:19;16.80;;;5.63;;
61756;SDS011;57225;61.460;24.060;2022-08-19T10:58:24;17.55;;;6.05;;
61756;SDS011;57225;61.460;24.060;2022-08-19T11:01:09;12.43;;;5.85;;
61756;SDS011;57225;61.460;24.060;2022-08-19T11:03:54;14.75;;;5.28;;
61756;SDS011;57225;61.460;24.060;2022-08-19T11:06:40;11.35;;;5.05;;
61756;SDS011;57225;61.460;24.060;2022-08-19T11:09:27;11.83;;;5.17;;
61756;SDS011;57225;61.460;24.060;2022-08-19T11:12:11;12.23;;;4.88;;
61756;SDS011;57225;61.460;24.060;2022-08-19T11:14:56;12.88;;;5.28;;
61756;SDS011;57225;61.460;24.060;2022-08-19T11:17:40;16.17;;;5.60;;
61756;SDS011;57225;61.460;24.060;2022-08-19T11:20:27;18.48;;;5.40;;
61756;SDS011;57225;61.460;24.060;2022-08-19T11:23:11;12.82;;;5.13;;
61756;SDS011;57225;61.460;24.060;2022-08-19T11:25:55;16.02;;;4.60;;
61756;SDS011;57225;61.460;24.060;2022-08-19T11:28:40;12.18;;;4.78;;
61756;SDS011;57225;61.460;24.060;2022-08-19T11:31:26;12.30;;;5.00;;
61756;SDS011;57225;61.460;24.060;2022-08-19T11:34:15;15.38;;;4.95;;
61756;SDS011;57225;61.460;24.060;2022-08-19T11:37:02;9.55;;;4.80;;
61756;SDS011;57225;61.460;24.060;2022-08-19T11:39:47;15.63;;;5.45;;
61756;SDS011;57225;61.460;24.060;2022-08-19T11:42:31;10.93;;;4.68;;
61756;SDS011;57225;61.460;24.060;2022-08-19T11:45:34;17.92;;;4.90;;
61756;SDS011;57225;61.460;24.060;2022-08-19T11:48:19;11.48;;;4.78;;
61756;SDS011;57225;61.460;24.060;2022-08-19T11:51:08;10.13;;;4.77;;
61756;SDS011;57225;61.460;24.060;2022-08-19T11:56:40;16.77;;;4.90;;
61756;SDS011;57225;61.460;24.060;2022-08-19T11:59:25;18.88;;;4.60;;
61756;SDS011;57225;61.460;24.060;2022-08-19T12:02:10;12.65;;;4.90;;
61756;SDS011;57225;61.460;24.060;2022-08-19T12:04:54;8.13;;;4.60;;
61756;SDS011;57225;61.460;24.060;2022-08-19T12:07:39;13.15;;;4.40;;
61756;SDS011;57225;61.460;24.060;2022-08-19T12:10:25;10.65;;;4.13;;
61756;SDS011;57225;61.460;24.060;2022-08-19T12:13:09;13.65;;;4.20;;
61756;SDS011;57225;61.460;24.060;2022-08-19T12:15:54;15.30;;;4.55;;
61756;SDS011;57225;61.460;24.060;2022-08-19T12:18:39;12.65;;;4.15;;
61756;SDS011;57225;61.460;24.060;2022-08-19T12:21:26;13.18;;;4.32;;
61756;SDS011;57225;61.460;24.060;2022-08-19T12:26:58;12.90;;;4.30;;
61756;SDS011;57225;61.460;24.060;2022-08-19T12:29:44;16.05;;;4.53;;
61756;SDS011;57225;61.460;24.060;2022-08-19T12:32:29;11.82;;;4.85;;
61756;SDS011;57225;61.460;24.060;2022-08-19T12:35:13;15.95;;;4.40;;
61756;SDS011;57225;61.460;24.060;2022-08-19T12:37:58;14.77;;;4.78;;
61756;SDS011;57225;61.460;24.060;2022-08-19T12:40:45;16.73;;;4.60;;
61756;SDS011;57225;61.460;24.060;2022-08-19T12:43:30;13.60;;;4.70;;
61756;SDS011;57225;61.460;24.060;2022-08-19T12:46:15;13.23;;;4.22;;
61756;SDS011;57225;61.460;24.060;2022-08-19T12:48:59;9.25;;;4.57;;
61756;SDS011;57225;61.460;24.060;2022-08-19T12:51:43;11.30;;;4.00;;
61756;SDS011;57225;61.460;24.060;2022-08-19T12:54:27;17.63;;;4.53;;
61756;SDS011;57225;61.460;24.060;2022-08-19T12:57:14;17.15;;;4.28;;
61756;SDS011;57225;61.460;24.060;2022-08-19T13:00:06;10.65;;;4.40;;
61756;SDS011;57225;61.460;24.060;2022-08-19T13:02:57;13.68;;;4.75;;
61756;SDS011;57225;61.460;24.060;2022-08-19T13:05:41;14.02;;;4.68;;
61756;SDS011;57225;61.460;24.060;2022-08-19T13:08:25;12.25;;;4.25;;
61756;SDS011;57225;61.460;24.060;2022-08-19T13:11:17;11.25;;;4.35;;
61756;SDS011;57225;61.460;24.060;2022-08-19T13:14:03;15.30;;;4.30;;
61756;SDS011;57225;61.460;24.060;2022-08-19T13:16:48;13.30;;;4.80;;
61756;SDS011;57225;61.460;24.060;2022-08-19T13:19:33;7.45;;;4.50;;
61756;SDS011;57225;61.460;24.060;2022-08-19T13:22:20;12.68;;;4.45;;
61756;SDS011;57225;61.460;24.060;2022-08-19T13:25:05;9.85;;;4.40;;
61756;SDS011;57225;61.460;24.060;2022-08-19T13:27:50;9.52;;;4.43;;
61756;SDS011;57225;61.460;24.060;2022-08-19T13:30:34;12.75;;;4.47;;
61756;SDS011;57225;61.460;24.060;2022-08-19T13:33:37;13.65;;;4.20;;
61756;SDS011;57225;61.460;24.060;2022-08-19T13:36:22;11.30;;;4.20;;
61756;SDS011;57225;61.460;24.060;2022-08-19T13:39:07;11.40;;;4.40;;
61756;SDS011;57225;61.460;24.060;2022-08-19T13:41:52;14.55;;;4.65;;
61756;SDS011;57225;61.460;24.060;2022-08-19T13:44:37;12.55;;;4.30;;
61756;SDS011;57225;61.460;24.060;2022-08-19T13:47:21;19.02;;;4.97;;
61756;SDS011;57225;61.460;24.060;2022-08-19T13:50:06;10.68;;;4.15;;
61756;SDS011;57225;61.460;24.060;2022-08-19T13:52:51;10.82;;;4.22;;
61756;SDS011;57225;61.460;24.060;2022-08-19T13:55:37;10.82;;;4.63;;
61756;SDS011;57225;61.460;24.060;2022-08-19T13:58:22;11.18;;;5.03;;
61756;SDS011;57225;61.460;24.060;2022-08-19T14:01:06;16.67;;;5.03;;
61756;SDS011;57225;61.460;24.060;2022-08-19T14:03:51;20.90;;;4.47;;
61756;SDS011;57225;61.460;24.060;2022-08-19T14:06:36;8.57;;;4.25;;
61756;SDS011;57225;61.460;24.060;2022-08-19T14:09:21;9.40;;;4.55;;
61756;SDS011;57225;61.460;24.060;2022-08-19T14:12:05;14.75;;;4.70;;
61756;SDS011;57225;61.460;24.060;2022-08-19T14:14:50;9.40;;;4.32;;
61756;SDS011;57225;61.460;24.060;2022-08-19T14:17:34;16.10;;;4.53;;
61756;SDS011;57225;61.460;24.060;2022-08-19T14:20:18;8.98;;;4.55;;
61756;SDS011;57225;61.460;24.060;2022-08-19T14:23:02;11.00;;;4.72;;
61756;SDS011;57225;61.460;24.060;2022-08-19T14:25:49;12.80;;;5.03;;
61756;SDS011;57225;61.460;24.060;2022-08-19T14:28:33;9.38;;;4.90;;
61756;SDS011;57225;61.460;24.060;2022-08-19T14:31:18;17.45;;;5.65;;
61756;SDS011;57225;61.460;24.060;2022-08-19T14:34:03;11.30;;;5.35;;
61756;SDS011;57225;61.460;24.060;2022-08-19T14:36:47;13.93;;;5.43;;
61756;SDS011;57225;61.460;24.060;2022-08-19T14:39:31;12.38;;;5.35;;
61756;SDS011;57225;61.460;24.060;2022-08-19T14:42:16;18.13;;;5.55;;
61756;SDS011;57225;61.460;24.060;2022-08-19T14:45:01;9.23;;;4.72;;
61756;SDS011;57225;61.460;24.060;2022-08-19T14:47:45;10.65;;;5.50;;
61756;SDS011;57225;61.460;24.060;2022-08-19T14:50:30;16.38;;;5.05;;
61756;SDS011;57225;61.460;24.060;2022-08-19T14:53:15;12.70;;;5.78;;
61756;SDS011;57225;61.460;24.060;2022-08-19T14:56:00;12.15;;;5.35;;
61756;SDS011;57225;61.460;24.060;2022-08-19T14:58:45;12.00;;;5.20;;
61756;SDS011;57225;61.460;24.060;2022-08-19T15:01:29;12.32;;;5.32;;
61756;SDS011;57225;61.460;24.060;2022-08-19T15:04:14;12.15;;;5.13;;
61756;SDS011;57225;61.460;24.060;2022-08-19T15:06:58;18.42;;;5.22;;
61756;SDS011;57225;61.460;24.060;2022-08-19T15:09:42;10.45;;;4.90;;
61756;SDS011;57225;61.460;24.060;2022-08-19T15:12:27;8.48;;;5.05;;
61756;SDS011;57225;61.460;24.060;2022-08-19T15:15:13;10.27;;;4.63;;
61756;SDS011;57225;61.460;24.060;2022-08-19T15:17:58;14.60;;;5.20;;
61756;SDS011;57225;61.460;24.060;2022-08-19T15:20:46;15.68;;;5.85;;
61756;SDS011;57225;61.460;24.060;2022-08-19T15:23:31;12.15;;;5.00;;
61756;SDS011;57225;61.460;24.060;2022-08-19T15:26:16;14.73;;;5.35;;
61756;SDS011;57225;61.460;24.060;2022-08-19T15:29:03;42.33;;;11.25;;
61756;SDS011;57225;61.460;24.060;2022-08-19T15:31:48;18.65;;;6.38;;
61756;SDS011;57225;61.460;24.060;2022-08-19T15:34:34;10.85;;;5.40;;
61756;SDS011;57225;61.460;24.060;2022-08-19T15:37:19;13.38;;;5.75;;
61756;SDS011;57225;61.460;24.060;2022-08-19T15:40:07;24.08;;;5.75;;
61756;SDS011;57225;61.460;24.060;2022-08-19T15:42:52;34.90;;;10.20;;
61756;SDS011;57225;61.460;24.060;2022-08-19T15:45:36;20.92;;;7.00;;
61756;SDS011;57225;61.460;24.060;2022-08-19T15:48:22;16.80;;;5.80;;
61756;SDS011;57225;61.460;24.060;2022-08-19T15:51:06;13.00;;;5.20;;
61756;SDS011;57225;61.460;24.060;2022-08-19T15:53:51;13.50;;;5.35;;
61756;SDS011;57225;61.460;24.060;2022-08-19T15:56:36;9.18;;;5.25;;
61756;SDS011;57225;61.460;24.060;2022-08-19T15:59:39;10.60;;;4.93;;
61756;SDS011;57225;61.460;24.060;2022-08-19T16:02:42;5.93;;;4.00;;
61756;SDS011;57225;61.460;24.060;2022-08-19T16:05:45;10.27;;;4.63;;
61756;SDS011;57225;61.460;24.060;2022-08-19T16:08:48;16.80;;;4.95;;
61756;SDS011;57225;61.460;24.060;2022-08-19T16:11:33;12.30;;;5.20;;
61756;SDS011;57225;61.460;24.060;2022-08-19T16:14:19;7.80;;;4.50;;
61756;SDS011;57225;61.460;24.060;2022-08-19T16:17:03;10.50;;;4.50;;
61756;SDS011;57225;61.460;24.060;2022-08-19T16:19:48;9.25;;;4.15;;
61756;SDS011;57225;61.460;24.060;2022-08-19T16:22:32;9.80;;;4.45;;